Charlotte, NC

4:25 AM EDT on September 22, 2014 (GMT -0400)
Windemere | Change Station
CLOSE
Current Station
Personal Weather Station
Location: Mint Hill, NC
Elevation: 764 ft
Nearby Weather Stations

Elev 764 ft 35.20 °N, 80.68 °W | Updated 16 seconds ago

Partly Cloudy
Partly Cloudy
67.6 °F
Feels Like 67.6 °F
N
0.0
Wind Variable Wind from NW
Gusts 0.0 mph

Today
High -- | Low -- °F
--% Chance of Precip.
Yesterday
High -- | Low -- °F
Precip. -- in
7:10 AM 7:19 PM
Waning Crescent, 3% visible
Pressure 29.92 in
Visibility 10.0 miles
Clouds Few 11000 ft
Scattered Clouds 15000 ft
Dew Point 50 °F
Humidity 52%
Rainfall 0.00 in
Snow Depth Not available.
UV 0 out of 12
Pollen 7.60 out of 12
Ozone Good
PM2.5 Moderate
Flu Activity Not available.
METAR KCLT 220752Z 34007KT 10SM FEW110 SCT150 21/12 A2995 RMK AO2 SLP131 T02110122 $

More Conditions Fewer Conditions

Pressure 29.92 in
Visibility 10.0 miles
Clouds Few 11000 ft
Scattered Clouds 15000 ft
Dew Point 50 °F
Humidity 52%
Rainfall 0.00 in
Snow Depth Not available.
UV 0 out of 12
Pollen 7.60 out of 12
Ozone Good
PM2.5 Moderate
Flu Activity Not available.
METAR KCLT 220752Z 34007KT 10SM FEW110 SCT150 21/12 A2995 RMK AO2 SLP131 T02110122 $

More Conditions Fewer Conditions

10-Day Weather Forecast

Almanac

Astronomy

Sep. 22, 2014 Rise Set
Actual Time 7:10 AM EDT 7:19 PM EDT
Civil Twilight 6:45 AM EDT 7:44 PM EDT
Nautical Twilight 6:15 AM EDT 8:14 PM EDT
Astronomical Twilight 5:45 AM EDT 8:44 PM EDT
Moon 5:40 AM EDT 6:25 PM EDT
Length of Visible Light 12h 59m
Length of Day
12h 08m
Tomorrow will be 2m 12s shorter.
Waning Crescent, 3% of the Moon is Illuminated
Today
Waning Crescent
Sep 24
New
Oct 1
First Quarter
Oct 8
Full
Oct 15
Last Quarter

Today's Extremes

State Highs State Lows

Community

WunderPhotos

Upload Photos

1,755,395 photos uploaded!

Nearby

Air Quality

  Air Quality AQ Index Pollutant
Yesterday Good
PM2.5
Yesterday Good
OZONE
Current Moderate
PM2.5
Current Good
OZONE
Monday Good
PM2.5
Monday Good
OZONE
Tuesday Good
OZONE
Tuesday Good
PM2.5
Wednesday Good
OZONE
Wednesday Good
PM2.5

Snow Depth

Station Depth Elevation
No new snow has been reported.

Earthquake Activity

City Distance Mag. Time & Date
New Ellenton, South Carolina 133 miles 2.6 4:38 PM EDT
2014-09-19
Minimum magnitude displayed is 2.5.

Coastal Water Temperatures

Place Temperature
No Stations Reporting

Nearby Weather Stations